Flight Track Log - Related Links

Times and Time Zones

All times are in EDT time to prevent confusion due to time zone crossing. See the N403EA flight status page for this flight to view local times or setup timezone preferences in your user account.

Time Position Orientation Groundspeed Altitude Reporting Facility
EDT Latitude Longitude Course Direction KTS MPH feet Rate Location/Type
Sat 07:42:30 PM 41.7453 -86.4206 299° West 188 216 3,200  Level Chicago Center
Sat 07:43:32 PM 41.7697 -86.4789 299° West 184 212 5,100 1,902 Climbing Chicago Center
Sat 07:44:33 PM 41.8294 -86.4983 346° North 186 214 7,100 1,525 Climbing Chicago Center
Sat 07:45:34 PM 41.8794 -86.5172 344° North 187 215 8,200 1,220 Climbing Chicago Center
Sat 07:46:36 PM 41.9317 -86.5392 343° North 194 223 9,600 1,220 Climbing Chicago Center
Sat 07:47:37 PM 41.9839 -86.5592 344° North 194 223 10,700 1,279 Climbing Chicago Center
Sat 07:48:38 PM 42.0336 -86.5919 334° Northwest 197 227 12,200 1,561 Climbing Chicago Center
Sat 07:49:40 PM 42.0783 -86.6197 335° Northwest 183 211 13,900 1,463 Climbing Chicago Center
Sat 07:50:41 PM 42.1247 -86.6461 337° Northwest 181 208 15,200 885 Climbing Chicago Center
Sat 07:51:42 PM 42.1903 -86.6847 336° Northwest 220 253 15,700 390 Climbing Chicago Center
Sat 07:52:44 PM 42.2522 -86.7239 335° Northwest 241 277 16,000 146 Climbing Chicago Center
Sat 07:53:45 PM 42.3156 -86.7617 336° Northwest 248 285 16,000  Level Chicago Center
Sat 07:54:46 PM 42.3783 -86.8003 336° Northwest 249 287 16,000  Level Chicago Center
Sat 07:55:48 PM 42.4428 -86.8394 336° Northwest 252 290 16,000  Level Chicago Center
Sat 07:56:49 PM 42.5072 -86.8781 336° Northwest 253 291 16,000  Level Chicago Center
Sat 07:57:50 PM 42.5731 -86.9194 335° Northwest 258 297 16,000  Level Chicago Center
Sat 07:58:52 PM 42.6364 -86.9564 337° Northwest 251 289 16,000  Level Chicago Center
Sat 07:59:53 PM 42.6994 -86.9975 334° Northwest 250 288 16,000  Level Chicago Center
Sat 08:00:54 PM 42.7644 -87.0353 337° Northwest 251 289 16,000  Level Chicago Center
Sat 08:01:55 PM 42.8419 -87.0847 335° Northwest 255 293 16,000  Level Chicago Center
Sat 08:02:57 PM 42.9081 -87.1250 336° Northwest 258 297 16,000  Level Chicago Center
Sat 08:03:58 PM 42.9725 -87.1653 335° Northwest 256 295 16,000  Level Chicago Center
Sat 08:04:59 PM 43.0386 -87.2067 335° Northwest 259 298 16,000  Level Chicago Center
Sat 08:06:00 PM 43.1036 -87.2458 336° Northwest 256 295 16,000  Level Chicago Center
Sat 08:07:01 PM 43.1703 -87.2864 336° Northwest 261 300 16,000  Level Chicago Center
Sat 08:08:03 PM 43.2339 -87.3264 335° Northwest 255 293 16,000 -341 Level Chicago Center
Sat 08:09:04 PM 43.3033 -87.3692 336° Northwest 261 300 15,300 -541 Descending Chicago Center
Sat 08:10:05 PM 43.3725 -87.4144 335° Northwest 276 318 14,900 -443 Descending Chicago Center
Sat 08:11:06 PM 43.4400 -87.4556 336° Northwest 270 311 14,400 -492 Descending Chicago Center
Sat 08:12:07 PM 43.5058 -87.4975 335° Northwest 264 304 13,900 -443 Descending Chicago Center
Sat 08:13:08 PM 43.5833 -87.5467 335° Northwest 265 305 13,500 -393 Descending Chicago Center
Sat 08:14:09 PM 43.6500 -87.5894 335° Northwest 266 306 13,100 -439 Descending Chicago Center
Sat 08:15:11 PM 43.7164 -87.6314 335° Northwest 264 304 12,600 -488 Descending Chicago Center
Sat 08:16:12 PM 43.7811 -87.6739 335° Northwest 260 299 12,100 -1,082 Descending Chicago Center
Sat 08:17:13 PM 43.8500 -87.7175 335° Northwest 268 308 10,400 -1,623 Descending Chicago Center
Sat 08:18:14 PM 43.9233 -87.7647 335° Northwest 285 328 8,800 -1,033 Descending Chicago Center
Sat 08:19:15 PM 43.9917 -87.8089 335° Northwest 274 315 8,300 -541 Descending Chicago Center
Sat 08:20:16 PM 44.0556 -87.8503 335° Northwest 259 298 7,700 -732 Descending Chicago Center
Sat 08:21:18 PM 44.1203 -87.8933 334° Northwest 258 297 6,800 -1,073 Descending Chicago Center
Sat 08:22:19 PM 44.1972 -87.9428 335° Northwest 261 300 5,500 -1,426 Descending Chicago Center
Sat 08:23:20 PM 44.2628 -87.9847 335° Northwest 260 299 3,900 -1,180 Descending Chicago Center
Sat 08:24:21 PM 44.3256 -88.0250 335° Northwest 254 292 3,100 -492 Descending Chicago Center
Sat 08:25:22 PM 44.3733 -88.0678 327° Northwest 214 246 2,900 -344 Descending Chicago Center
Sat 08:26:23 PM 44.4147 -88.1214 317° Northwest 205 236 2,400 -590 Descending Chicago Center
Sat 08:27:24 PM 44.4439 -88.1650 313° West 187 215 1,700 -443 Descending Chicago Center
Sat 08:28:25 PM 44.4961 -88.1808 348° North 179 206 1,500 -197 Descending Chicago Center
Sat 08:30:00 PM 44.4846 -88.1297 335° Northwest  Level Estimated

Login

Don't have an account? Register now (free) for customized features, flight alerts, and more!